sensor_id;sensor_type;location;lat;lon;timestamp;P1;durP1;ratioP1;P2;durP2;ratioP2
67162;SDS011;54092;53.088;8.850;2023-07-02T00:00:06;9.25;;;3.53;;
67162;SDS011;54092;53.088;8.850;2023-07-02T00:02:32;9.73;;;3.95;;
67162;SDS011;54092;53.088;8.850;2023-07-02T00:04:58;6.53;;;3.50;;
67162;SDS011;54092;53.088;8.850;2023-07-02T00:07:24;10.48;;;3.80;;
67162;SDS011;54092;53.088;8.850;2023-07-02T00:09:51;7.82;;;3.53;;
67162;SDS011;54092;53.088;8.850;2023-07-02T00:12:17;9.50;;;4.00;;
67162;SDS011;54092;53.088;8.850;2023-07-02T00:14:42;7.13;;;3.63;;
67162;SDS011;54092;53.088;8.850;2023-07-02T00:17:08;10.10;;;3.65;;
67162;SDS011;54092;53.088;8.850;2023-07-02T00:19:37;6.07;;;3.45;;
67162;SDS011;54092;53.088;8.850;2023-07-02T00:22:06;9.10;;;3.40;;
67162;SDS011;54092;53.088;8.850;2023-07-02T00:24:35;8.15;;;3.63;;
67162;SDS011;54092;53.088;8.850;2023-07-02T00:27:01;9.60;;;3.80;;
67162;SDS011;54092;53.088;8.850;2023-07-02T00:29:27;6.95;;;4.15;;
67162;SDS011;54092;53.088;8.850;2023-07-02T00:31:53;6.38;;;3.42;;
67162;SDS011;54092;53.088;8.850;2023-07-02T00:34:18;6.60;;;3.60;;
67162;SDS011;54092;53.088;8.850;2023-07-02T00:36:44;9.75;;;3.95;;
67162;SDS011;54092;53.088;8.850;2023-07-02T00:39:10;10.68;;;4.10;;
67162;SDS011;54092;53.088;8.850;2023-07-02T00:41:38;6.07;;;3.50;;
67162;SDS011;54092;53.088;8.850;2023-07-02T00:44:05;7.85;;;3.83;;
67162;SDS011;54092;53.088;8.850;2023-07-02T00:46:30;8.23;;;3.67;;
67162;SDS011;54092;53.088;8.850;2023-07-02T00:48:56;11.05;;;4.00;;
67162;SDS011;54092;53.088;8.850;2023-07-02T00:51:24;5.40;;;3.35;;
67162;SDS011;54092;53.088;8.850;2023-07-02T00:53:52;8.43;;;3.65;;
67162;SDS011;54092;53.088;8.850;2023-07-02T00:56:19;6.88;;;3.45;;
67162;SDS011;54092;53.088;8.850;2023-07-02T00:58:46;8.52;;;3.72;;
67162;SDS011;54092;53.088;8.850;2023-07-02T01:01:19;7.95;;;3.70;;
67162;SDS011;54092;53.088;8.850;2023-07-02T01:06:28;7.03;;;3.42;;
67162;SDS011;54092;53.088;8.850;2023-07-02T01:08:55;7.32;;;3.88;;
67162;SDS011;54092;53.088;8.850;2023-07-02T01:11:27;10.20;;;4.00;;
67162;SDS011;54092;53.088;8.850;2023-07-02T01:14:13;8.10;;;3.15;;
67162;SDS011;54092;53.088;8.850;2023-07-02T01:19:13;7.20;;;3.40;;
67162;SDS011;54092;53.088;8.850;2023-07-02T01:21:44;8.30;;;3.60;;
67162;SDS011;54092;53.088;8.850;2023-07-02T01:24:11;11.55;;;3.92;;
67162;SDS011;54092;53.088;8.850;2023-07-02T01:26:39;9.60;;;4.07;;
67162;SDS011;54092;53.088;8.850;2023-07-02T01:29:18;8.70;;;4.10;;
67162;SDS011;54092;53.088;8.850;2023-07-02T01:31:45;7.97;;;3.72;;
67162;SDS011;54092;53.088;8.850;2023-07-02T01:34:11;6.97;;;3.58;;
67162;SDS011;54092;53.088;8.850;2023-07-02T01:36:38;7.82;;;3.60;;
67162;SDS011;54092;53.088;8.850;2023-07-02T01:39:03;8.32;;;3.90;;
67162;SDS011;54092;53.088;8.850;2023-07-02T01:41:29;8.40;;;3.78;;
67162;SDS011;54092;53.088;8.850;2023-07-02T01:43:55;9.82;;;3.88;;
67162;SDS011;54092;53.088;8.850;2023-07-02T01:46:20;8.05;;;3.80;;
67162;SDS011;54092;53.088;8.850;2023-07-02T01:48:46;8.93;;;3.78;;
67162;SDS011;54092;53.088;8.850;2023-07-02T01:51:11;8.85;;;4.35;;
67162;SDS011;54092;53.088;8.850;2023-07-02T01:53:38;8.13;;;3.90;;
67162;SDS011;54092;53.088;8.850;2023-07-02T01:56:04;10.35;;;4.18;;
67162;SDS011;54092;53.088;8.850;2023-07-02T01:58:30;6.65;;;3.75;;
67162;SDS011;54092;53.088;8.850;2023-07-02T02:00:55;9.07;;;3.92;;
67162;SDS011;54092;53.088;8.850;2023-07-02T02:03:21;7.53;;;3.70;;
67162;SDS011;54092;53.088;8.850;2023-07-02T02:05:47;8.43;;;3.65;;
67162;SDS011;54092;53.088;8.850;2023-07-02T02:08:12;8.25;;;3.95;;
67162;SDS011;54092;53.088;8.850;2023-07-02T02:10:38;8.48;;;4.10;;
67162;SDS011;54092;53.088;8.850;2023-07-02T02:13:04;8.98;;;4.55;;
67162;SDS011;54092;53.088;8.850;2023-07-02T02:15:29;8.75;;;4.10;;
67162;SDS011;54092;53.088;8.850;2023-07-02T02:17:55;11.20;;;4.22;;
67162;SDS011;54092;53.088;8.850;2023-07-02T02:20:20;9.98;;;4.43;;
67162;SDS011;54092;53.088;8.850;2023-07-02T02:22:46;11.98;;;4.03;;
67162;SDS011;54092;53.088;8.850;2023-07-02T02:25:11;11.25;;;4.35;;
67162;SDS011;54092;53.088;8.850;2023-07-02T02:27:37;8.10;;;4.03;;
67162;SDS011;54092;53.088;8.850;2023-07-02T02:30:03;16.60;;;4.72;;
67162;SDS011;54092;53.088;8.850;2023-07-02T02:32:29;9.05;;;3.95;;
67162;SDS011;54092;53.088;8.850;2023-07-02T02:34:54;12.10;;;4.15;;
67162;SDS011;54092;53.088;8.850;2023-07-02T02:37:20;10.45;;;4.30;;
67162;SDS011;54092;53.088;8.850;2023-07-02T02:39:47;9.50;;;3.88;;
67162;SDS011;54092;53.088;8.850;2023-07-02T02:42:12;11.82;;;4.00;;
67162;SDS011;54092;53.088;8.850;2023-07-02T02:44:38;8.52;;;4.25;;
67162;SDS011;54092;53.088;8.850;2023-07-02T02:47:03;7.65;;;3.97;;
67162;SDS011;54092;53.088;8.850;2023-07-02T02:49:30;8.32;;;3.92;;
67162;SDS011;54092;53.088;8.850;2023-07-02T02:51:56;10.80;;;4.60;;
67162;SDS011;54092;53.088;8.850;2023-07-02T02:54:21;9.95;;;3.88;;
67162;SDS011;54092;53.088;8.850;2023-07-02T02:56:47;9.68;;;4.13;;
67162;SDS011;54092;53.088;8.850;2023-07-02T02:59:12;10.30;;;4.53;;
67162;SDS011;54092;53.088;8.850;2023-07-02T03:01:38;10.93;;;4.70;;
67162;SDS011;54092;53.088;8.850;2023-07-02T03:04:03;9.73;;;4.32;;
67162;SDS011;54092;53.088;8.850;2023-07-02T03:06:29;10.32;;;4.35;;
67162;SDS011;54092;53.088;8.850;2023-07-02T03:08:55;15.25;;;5.18;;
67162;SDS011;54092;53.088;8.850;2023-07-02T03:11:20;9.85;;;4.15;;
67162;SDS011;54092;53.088;8.850;2023-07-02T03:13:46;11.45;;;4.20;;
67162;SDS011;54092;53.088;8.850;2023-07-02T03:16:12;13.68;;;4.65;;
67162;SDS011;54092;53.088;8.850;2023-07-02T03:18:38;15.77;;;4.68;;
67162;SDS011;54092;53.088;8.850;2023-07-02T03:21:03;12.75;;;5.10;;
67162;SDS011;54092;53.088;8.850;2023-07-02T03:23:29;16.05;;;4.82;;
67162;SDS011;54092;53.088;8.850;2023-07-02T03:25:55;12.07;;;4.63;;
67162;SDS011;54092;53.088;8.850;2023-07-02T03:28:20;11.57;;;4.85;;
67162;SDS011;54092;53.088;8.850;2023-07-02T03:30:46;16.65;;;5.18;;
67162;SDS011;54092;53.088;8.850;2023-07-02T03:33:11;15.32;;;4.97;;
67162;SDS011;54092;53.088;8.850;2023-07-02T03:35:37;14.18;;;5.85;;
67162;SDS011;54092;53.088;8.850;2023-07-02T03:38:03;12.57;;;5.43;;
67162;SDS011;54092;53.088;8.850;2023-07-02T03:40:30;11.57;;;4.90;;
67162;SDS011;54092;53.088;8.850;2023-07-02T03:42:56;11.25;;;4.82;;
67162;SDS011;54092;53.088;8.850;2023-07-02T03:45:22;16.23;;;4.80;;
67162;SDS011;54092;53.088;8.850;2023-07-02T03:47:47;10.98;;;5.05;;
67162;SDS011;54092;53.088;8.850;2023-07-02T03:50:13;16.33;;;5.57;;
67162;SDS011;54092;53.088;8.850;2023-07-02T03:52:38;12.65;;;5.10;;
67162;SDS011;54092;53.088;8.850;2023-07-02T03:55:04;13.38;;;5.38;;
67162;SDS011;54092;53.088;8.850;2023-07-02T03:57:30;12.63;;;5.03;;
67162;SDS011;54092;53.088;8.850;2023-07-02T03:59:55;12.18;;;5.20;;
67162;SDS011;54092;53.088;8.850;2023-07-02T04:02:21;13.88;;;4.78;;
67162;SDS011;54092;53.088;8.850;2023-07-02T04:04:46;16.15;;;5.28;;
67162;SDS011;54092;53.088;8.850;2023-07-02T04:07:12;13.07;;;5.07;;
67162;SDS011;54092;53.088;8.850;2023-07-02T04:09:37;13.13;;;5.43;;
67162;SDS011;54092;53.088;8.850;2023-07-02T04:12:03;13.43;;;5.00;;
67162;SDS011;54092;53.088;8.850;2023-07-02T04:14:29;15.77;;;6.03;;
67162;SDS011;54092;53.088;8.850;2023-07-02T04:16:54;16.63;;;5.28;;
67162;SDS011;54092;53.088;8.850;2023-07-02T04:19:20;18.38;;;5.90;;
67162;SDS011;54092;53.088;8.850;2023-07-02T04:21:45;17.85;;;5.22;;
67162;SDS011;54092;53.088;8.850;2023-07-02T04:24:11;12.82;;;5.13;;
67162;SDS011;54092;53.088;8.850;2023-07-02T04:26:37;15.98;;;5.72;;
67162;SDS011;54092;53.088;8.850;2023-07-02T04:29:02;17.95;;;4.75;;
67162;SDS011;54092;53.088;8.850;2023-07-02T04:31:28;14.70;;;5.43;;
67162;SDS011;54092;53.088;8.850;2023-07-02T04:33:54;15.68;;;4.97;;
67162;SDS011;54092;53.088;8.850;2023-07-02T04:36:20;13.02;;;5.00;;
67162;SDS011;54092;53.088;8.850;2023-07-02T04:38:45;14.70;;;5.63;;
67162;SDS011;54092;53.088;8.850;2023-07-02T04:41:11;19.08;;;5.65;;
67162;SDS011;54092;53.088;8.850;2023-07-02T04:43:36;17.10;;;7.05;;
67162;SDS011;54092;53.088;8.850;2023-07-02T04:46:02;15.75;;;5.10;;
67162;SDS011;54092;53.088;8.850;2023-07-02T04:48:27;15.70;;;5.30;;
67162;SDS011;54092;53.088;8.850;2023-07-02T04:50:53;20.52;;;5.60;;
67162;SDS011;54092;53.088;8.850;2023-07-02T04:53:19;20.60;;;5.75;;
67162;SDS011;54092;53.088;8.850;2023-07-02T04:55:44;14.95;;;5.88;;
67162;SDS011;54092;53.088;8.850;2023-07-02T04:58:10;12.65;;;5.22;;
67162;SDS011;54092;53.088;8.850;2023-07-02T05:00:35;16.52;;;6.18;;
67162;SDS011;54092;53.088;8.850;2023-07-02T05:03:01;16.77;;;5.75;;
67162;SDS011;54092;53.088;8.850;2023-07-02T05:05:27;16.42;;;5.47;;
67162;SDS011;54092;53.088;8.850;2023-07-02T05:07:54;15.52;;;5.28;;
67162;SDS011;54092;53.088;8.850;2023-07-02T05:10:19;17.65;;;6.32;;
67162;SDS011;54092;53.088;8.850;2023-07-02T05:12:45;20.63;;;6.43;;
67162;SDS011;54092;53.088;8.850;2023-07-02T05:15:11;21.55;;;6.22;;
67162;SDS011;54092;53.088;8.850;2023-07-02T05:17:37;23.15;;;7.10;;
67162;SDS011;54092;53.088;8.850;2023-07-02T05:20:03;15.00;;;6.05;;
67162;SDS011;54092;53.088;8.850;2023-07-02T05:22:29;15.95;;;6.03;;
67162;SDS011;54092;53.088;8.850;2023-07-02T05:24:55;16.30;;;5.75;;
67162;SDS011;54092;53.088;8.850;2023-07-02T05:27:20;19.58;;;6.07;;
67162;SDS011;54092;53.088;8.850;2023-07-02T05:29:46;19.92;;;5.88;;
67162;SDS011;54092;53.088;8.850;2023-07-02T05:32:11;21.80;;;6.28;;
67162;SDS011;54092;53.088;8.850;2023-07-02T05:34:37;19.38;;;6.22;;
67162;SDS011;54092;53.088;8.850;2023-07-02T05:37:02;19.63;;;5.75;;
67162;SDS011;54092;53.088;8.850;2023-07-02T05:39:28;18.20;;;6.00;;
67162;SDS011;54092;53.088;8.850;2023-07-02T05:41:54;18.05;;;6.13;;
67162;SDS011;54092;53.088;8.850;2023-07-02T05:44:20;16.20;;;5.97;;
67162;SDS011;54092;53.088;8.850;2023-07-02T05:46:45;15.55;;;6.03;;
67162;SDS011;54092;53.088;8.850;2023-07-02T05:49:11;15.95;;;5.50;;
67162;SDS011;54092;53.088;8.850;2023-07-02T05:51:36;21.48;;;5.90;;
67162;SDS011;54092;53.088;8.850;2023-07-02T05:54:02;20.15;;;6.43;;
67162;SDS011;54092;53.088;8.850;2023-07-02T05:56:28;19.95;;;6.85;;
67162;SDS011;54092;53.088;8.850;2023-07-02T05:58:53;18.58;;;5.78;;
67162;SDS011;54092;53.088;8.850;2023-07-02T06:01:19;19.20;;;6.47;;
67162;SDS011;54092;53.088;8.850;2023-07-02T06:03:44;19.63;;;6.88;;
67162;SDS011;54092;53.088;8.850;2023-07-02T06:06:10;19.60;;;5.93;;
67162;SDS011;54092;53.088;8.850;2023-07-02T06:08:36;16.95;;;5.78;;
67162;SDS011;54092;53.088;8.850;2023-07-02T06:11:02;19.60;;;5.93;;
67162;SDS011;54092;53.088;8.850;2023-07-02T06:13:27;24.08;;;6.50;;
67162;SDS011;54092;53.088;8.850;2023-07-02T06:15:53;15.65;;;5.90;;
67162;SDS011;54092;53.088;8.850;2023-07-02T06:18:18;22.05;;;6.30;;
67162;SDS011;54092;53.088;8.850;2023-07-02T06:20:45;21.83;;;6.38;;
67162;SDS011;54092;53.088;8.850;2023-07-02T06:23:11;19.30;;;6.05;;
67162;SDS011;54092;53.088;8.850;2023-07-02T06:25:36;21.27;;;6.07;;
67162;SDS011;54092;53.088;8.850;2023-07-02T06:28:02;14.63;;;6.18;;
67162;SDS011;54092;53.088;8.850;2023-07-02T06:30:27;18.15;;;5.93;;
67162;SDS011;54092;53.088;8.850;2023-07-02T06:32:53;15.52;;;5.43;;
67162;SDS011;54092;53.088;8.850;2023-07-02T06:35:19;20.73;;;6.38;;
67162;SDS011;54092;53.088;8.850;2023-07-02T06:37:46;17.70;;;5.82;;
67162;SDS011;54092;53.088;8.850;2023-07-02T06:40:11;17.95;;;5.60;;
67162;SDS011;54092;53.088;8.850;2023-07-02T06:42:37;15.45;;;5.57;;
67162;SDS011;54092;53.088;8.850;2023-07-02T06:45:03;19.63;;;5.95;;
67162;SDS011;54092;53.088;8.850;2023-07-02T06:47:29;19.48;;;6.03;;
67162;SDS011;54092;53.088;8.850;2023-07-02T06:49:54;18.63;;;5.80;;
67162;SDS011;54092;53.088;8.850;2023-07-02T06:52:20;17.08;;;5.68;;
67162;SDS011;54092;53.088;8.850;2023-07-02T06:54:45;16.95;;;5.68;;
67162;SDS011;54092;53.088;8.850;2023-07-02T06:57:12;17.63;;;5.20;;
67162;SDS011;54092;53.088;8.850;2023-07-02T06:59:38;16.90;;;6.45;;
67162;SDS011;54092;53.088;8.850;2023-07-02T07:02:03;21.85;;;6.03;;
67162;SDS011;54092;53.088;8.850;2023-07-02T07:04:29;23.35;;;6.30;;
67162;SDS011;54092;53.088;8.850;2023-07-02T07:06:54;17.95;;;6.45;;
67162;SDS011;54092;53.088;8.850;2023-07-02T07:09:22;17.35;;;6.13;;
67162;SDS011;54092;53.088;8.850;2023-07-02T07:11:48;16.60;;;5.85;;
67162;SDS011;54092;53.088;8.850;2023-07-02T07:14:14;19.42;;;6.35;;
67162;SDS011;54092;53.088;8.850;2023-07-02T07:16:39;19.25;;;6.07;;
67162;SDS011;54092;53.088;8.850;2023-07-02T07:19:05;18.08;;;6.47;;
67162;SDS011;54092;53.088;8.850;2023-07-02T07:21:32;17.73;;;6.05;;
67162;SDS011;54092;53.088;8.850;2023-07-02T07:23:58;16.73;;;6.05;;
67162;SDS011;54092;53.088;8.850;2023-07-02T07:26:24;11.48;;;4.40;;
67162;SDS011;54092;53.088;8.850;2023-07-02T07:28:49;21.73;;;5.95;;
67162;SDS011;54092;53.088;8.850;2023-07-02T07:31:15;21.67;;;5.50;;
67162;SDS011;54092;53.088;8.850;2023-07-02T07:33:40;14.48;;;4.97;;
67162;SDS011;54092;53.088;8.850;2023-07-02T07:36:06;15.98;;;5.18;;
67162;SDS011;54092;53.088;8.850;2023-07-02T07:38:31;14.75;;;4.72;;
67162;SDS011;54092;53.088;8.850;2023-07-02T07:40:57;14.38;;;4.80;;
67162;SDS011;54092;53.088;8.850;2023-07-02T07:43:22;12.40;;;5.18;;
67162;SDS011;54092;53.088;8.850;2023-07-02T07:45:48;12.70;;;4.97;;
67162;SDS011;54092;53.088;8.850;2023-07-02T07:48:13;11.63;;;5.63;;
67162;SDS011;54092;53.088;8.850;2023-07-02T07:50:39;13.90;;;5.00;;
67162;SDS011;54092;53.088;8.850;2023-07-02T07:53:05;16.05;;;5.20;;
67162;SDS011;54092;53.088;8.850;2023-07-02T07:55:30;13.80;;;5.60;;
67162;SDS011;54092;53.088;8.850;2023-07-02T07:57:56;13.00;;;5.05;;
67162;SDS011;54092;53.088;8.850;2023-07-02T08:00:21;12.65;;;4.72;;
67162;SDS011;54092;53.088;8.850;2023-07-02T08:02:49;15.73;;;4.90;;
67162;SDS011;54092;53.088;8.850;2023-07-02T08:05:15;14.27;;;5.13;;
67162;SDS011;54092;53.088;8.850;2023-07-02T08:07:41;16.10;;;4.82;;
67162;SDS011;54092;53.088;8.850;2023-07-02T08:10:07;13.68;;;5.00;;
67162;SDS011;54092;53.088;8.850;2023-07-02T08:12:33;10.77;;;4.40;;
67162;SDS011;54092;53.088;8.850;2023-07-02T08:14:59;15.52;;;5.53;;
67162;SDS011;54092;53.088;8.850;2023-07-02T08:17:24;13.07;;;4.68;;
67162;SDS011;54092;53.088;8.850;2023-07-02T08:19:50;13.88;;;4.32;;
67162;SDS011;54092;53.088;8.850;2023-07-02T08:22:16;16.15;;;5.53;;
67162;SDS011;54092;53.088;8.850;2023-07-02T08:24:41;14.63;;;4.85;;
67162;SDS011;54092;53.088;8.850;2023-07-02T08:27:07;15.55;;;4.88;;
67162;SDS011;54092;53.088;8.850;2023-07-02T08:29:32;11.32;;;4.63;;
67162;SDS011;54092;53.088;8.850;2023-07-02T08:31:58;11.27;;;4.50;;
67162;SDS011;54092;53.088;8.850;2023-07-02T08:34:23;16.27;;;5.05;;
67162;SDS011;54092;53.088;8.850;2023-07-02T08:36:49;10.27;;;4.35;;
67162;SDS011;54092;53.088;8.850;2023-07-02T08:39:16;14.45;;;4.43;;
67162;SDS011;54092;53.088;8.850;2023-07-02T08:41:42;11.77;;;4.88;;
67162;SDS011;54092;53.088;8.850;2023-07-02T08:44:09;12.40;;;4.00;;
67162;SDS011;54092;53.088;8.850;2023-07-02T08:46:37;12.63;;;4.20;;
67162;SDS011;54092;53.088;8.850;2023-07-02T08:49:02;13.35;;;4.60;;
67162;SDS011;54092;53.088;8.850;2023-07-02T08:51:28;13.88;;;4.90;;
67162;SDS011;54092;53.088;8.850;2023-07-02T08:53:54;10.20;;;4.00;;
67162;SDS011;54092;53.088;8.850;2023-07-02T08:56:19;11.82;;;4.65;;
67162;SDS011;54092;53.088;8.850;2023-07-02T08:58:45;13.85;;;5.13;;
67162;SDS011;54092;53.088;8.850;2023-07-02T09:01:11;8.68;;;3.92;;
67162;SDS011;54092;53.088;8.850;2023-07-02T09:03:39;9.88;;;4.03;;
67162;SDS011;54092;53.088;8.850;2023-07-02T09:06:06;10.88;;;4.13;;
67162;SDS011;54092;53.088;8.850;2023-07-02T09:08:32;14.40;;;4.60;;
67162;SDS011;54092;53.088;8.850;2023-07-02T09:11:07;15.90;;;5.57;;
67162;SDS011;54092;53.088;8.850;2023-07-02T09:13:44;11.05;;;4.90;;
67162;SDS011;54092;53.088;8.850;2023-07-02T09:18:56;13.52;;;5.18;;
67162;SDS011;54092;53.088;8.850;2023-07-02T09:21:23;16.73;;;4.80;;
67162;SDS011;54092;53.088;8.850;2023-07-02T09:23:51;13.00;;;4.47;;
67162;SDS011;54092;53.088;8.850;2023-07-02T09:26:20;11.98;;;4.40;;
67162;SDS011;54092;53.088;8.850;2023-07-02T09:28:46;11.93;;;4.43;;
67162;SDS011;54092;53.088;8.850;2023-07-02T09:31:11;15.25;;;5.10;;
67162;SDS011;54092;53.088;8.850;2023-07-02T09:33:37;13.82;;;4.57;;
67162;SDS011;54092;53.088;8.850;2023-07-02T09:36:03;15.00;;;4.40;;
67162;SDS011;54092;53.088;8.850;2023-07-02T09:38:29;12.05;;;5.18;;
67162;SDS011;54092;53.088;8.850;2023-07-02T09:40:54;10.82;;;4.50;;
67162;SDS011;54092;53.088;8.850;2023-07-02T09:43:21;11.68;;;4.38;;
67162;SDS011;54092;53.088;8.850;2023-07-02T09:45:47;11.65;;;4.20;;
67162;SDS011;54092;53.088;8.850;2023-07-02T09:48:15;13.05;;;4.57;;
67162;SDS011;54092;53.088;8.850;2023-07-02T09:50:45;11.07;;;4.80;;
67162;SDS011;54092;53.088;8.850;2023-07-02T09:53:13;12.13;;;4.97;;
67162;SDS011;54092;53.088;8.850;2023-07-02T09:55:38;13.00;;;4.70;;
67162;SDS011;54092;53.088;8.850;2023-07-02T09:58:07;12.88;;;4.43;;
67162;SDS011;54092;53.088;8.850;2023-07-02T10:00:33;10.52;;;4.47;;
67162;SDS011;54092;53.088;8.850;2023-07-02T10:02:59;12.20;;;4.45;;
67162;SDS011;54092;53.088;8.850;2023-07-02T10:05:28;11.60;;;4.60;;
67162;SDS011;54092;53.088;8.850;2023-07-02T10:07:58;11.75;;;4.60;;
67162;SDS011;54092;53.088;8.850;2023-07-02T10:10:37;12.75;;;4.72;;
67162;SDS011;54092;53.088;8.850;2023-07-02T10:13:02;9.52;;;3.72;;
67162;SDS011;54092;53.088;8.850;2023-07-02T10:15:28;9.45;;;4.60;;
67162;SDS011;54092;53.088;8.850;2023-07-02T10:17:59;10.13;;;4.30;;
67162;SDS011;54092;53.088;8.850;2023-07-02T10:20:34;13.88;;;4.90;;
67162;SDS011;54092;53.088;8.850;2023-07-02T10:23:02;14.30;;;4.15;;
67162;SDS011;54092;53.088;8.850;2023-07-02T10:25:32;8.48;;;3.58;;
67162;SDS011;54092;53.088;8.850;2023-07-02T10:27:59;10.00;;;3.80;;
67162;SDS011;54092;53.088;8.850;2023-07-02T10:30:44;9.68;;;3.80;;
67162;SDS011;54092;53.088;8.850;2023-07-02T10:33:14;10.00;;;3.60;;
67162;SDS011;54092;53.088;8.850;2023-07-02T10:35:42;8.30;;;3.40;;
67162;SDS011;54092;53.088;8.850;2023-07-02T10:38:13;10.32;;;3.90;;
67162;SDS011;54092;53.088;8.850;2023-07-02T10:40:41;8.20;;;3.47;;
67162;SDS011;54092;53.088;8.850;2023-07-02T10:43:07;10.63;;;3.63;;
67162;SDS011;54092;53.088;8.850;2023-07-02T10:45:33;8.65;;;3.10;;
67162;SDS011;54092;53.088;8.850;2023-07-02T10:48:03;9.30;;;3.25;;
67162;SDS011;54092;53.088;8.850;2023-07-02T10:50:30;8.30;;;3.28;;
67162;SDS011;54092;53.088;8.850;2023-07-02T10:52:57;12.63;;;3.13;;
67162;SDS011;54092;53.088;8.850;2023-07-02T10:55:23;8.40;;;3.40;;
67162;SDS011;54092;53.088;8.850;2023-07-02T10:57:50;10.27;;;3.58;;
67162;SDS011;54092;53.088;8.850;2023-07-02T11:00:26;7.35;;;3.17;;
67162;SDS011;54092;53.088;8.850;2023-07-02T11:02:52;11.82;;;3.40;;
67162;SDS011;54092;53.088;8.850;2023-07-02T11:05:17;8.98;;;3.05;;
67162;SDS011;54092;53.088;8.850;2023-07-02T11:07:43;8.85;;;3.33;;
67162;SDS011;54092;53.088;8.850;2023-07-02T11:10:09;8.27;;;3.15;;
67162;SDS011;54092;53.088;8.850;2023-07-02T11:12:42;12.88;;;3.75;;
67162;SDS011;54092;53.088;8.850;2023-07-02T11:15:08;9.93;;;2.95;;
67162;SDS011;54092;53.088;8.850;2023-07-02T11:17:40;8.55;;;3.25;;
67162;SDS011;54092;53.088;8.850;2023-07-02T11:20:07;9.68;;;3.10;;
67162;SDS011;54092;53.088;8.850;2023-07-02T11:22:34;8.25;;;3.10;;
67162;SDS011;54092;53.088;8.850;2023-07-02T11:27:42;7.90;;;3.08;;
67162;SDS011;54092;53.088;8.850;2023-07-02T11:30:08;8.70;;;3.30;;
67162;SDS011;54092;53.088;8.850;2023-07-02T11:32:46;9.13;;;3.30;;
67162;SDS011;54092;53.088;8.850;2023-07-02T11:35:16;7.45;;;3.10;;
67162;SDS011;54092;53.088;8.850;2023-07-02T11:37:42;7.80;;;3.20;;
67162;SDS011;54092;53.088;8.850;2023-07-02T11:40:08;7.28;;;3.40;;
67162;SDS011;54092;53.088;8.850;2023-07-02T11:42:34;8.77;;;3.17;;
67162;SDS011;54092;53.088;8.850;2023-07-02T11:45:00;9.77;;;2.97;;
67162;SDS011;54092;53.088;8.850;2023-07-02T11:47:25;9.23;;;2.80;;
67162;SDS011;54092;53.088;8.850;2023-07-02T11:49:52;7.82;;;3.10;;
67162;SDS011;54092;53.088;8.850;2023-07-02T11:52:18;8.57;;;2.90;;
67162;SDS011;54092;53.088;8.850;2023-07-02T11:54:43;8.38;;;3.22;;
67162;SDS011;54092;53.088;8.850;2023-07-02T11:57:09;6.25;;;2.72;;
67162;SDS011;54092;53.088;8.850;2023-07-02T11:59:35;7.50;;;2.78;;
67162;SDS011;54092;53.088;8.850;2023-07-02T12:02:01;6.72;;;2.80;;
67162;SDS011;54092;53.088;8.850;2023-07-02T12:04:27;9.00;;;2.67;;
67162;SDS011;54092;53.088;8.850;2023-07-02T12:06:52;7.85;;;2.88;;
67162;SDS011;54092;53.088;8.850;2023-07-02T12:09:18;7.07;;;2.78;;
67162;SDS011;54092;53.088;8.850;2023-07-02T12:11:43;9.23;;;2.70;;
67162;SDS011;54092;53.088;8.850;2023-07-02T12:14:10;13.35;;;3.10;;
67162;SDS011;54092;53.088;8.850;2023-07-02T12:16:36;8.43;;;3.35;;
67162;SDS011;54092;53.088;8.850;2023-07-02T12:19:02;6.95;;;2.90;;
67162;SDS011;54092;53.088;8.850;2023-07-02T12:21:27;8.52;;;3.20;;
67162;SDS011;54092;53.088;8.850;2023-07-02T12:23:53;10.98;;;3.10;;
67162;SDS011;54092;53.088;8.850;2023-07-02T12:26:19;6.45;;;3.15;;
67162;SDS011;54092;53.088;8.850;2023-07-02T12:28:46;9.95;;;3.03;;
67162;SDS011;54092;53.088;8.850;2023-07-02T12:31:11;6.95;;;2.42;;
67162;SDS011;54092;53.088;8.850;2023-07-02T12:33:38;7.20;;;3.20;;
67162;SDS011;54092;53.088;8.850;2023-07-02T12:36:03;11.43;;;3.55;;
67162;SDS011;54092;53.088;8.850;2023-07-02T12:38:29;9.10;;;2.90;;
67162;SDS011;54092;53.088;8.850;2023-07-02T12:40:55;8.70;;;3.60;;
67162;SDS011;54092;53.088;8.850;2023-07-02T12:43:20;8.63;;;3.15;;
67162;SDS011;54092;53.088;8.850;2023-07-02T12:45:46;7.70;;;3.28;;
67162;SDS011;54092;53.088;8.850;2023-07-02T12:48:12;10.02;;;3.92;;
67162;SDS011;54092;53.088;8.850;2023-07-02T12:50:37;11.18;;;3.10;;
67162;SDS011;54092;53.088;8.850;2023-07-02T12:53:04;9.15;;;3.33;;
67162;SDS011;54092;53.088;8.850;2023-07-02T12:55:30;10.38;;;3.10;;
67162;SDS011;54092;53.088;8.850;2023-07-02T12:57:55;7.07;;;3.08;;
67162;SDS011;54092;53.088;8.850;2023-07-02T13:00:21;11.75;;;3.20;;
67162;SDS011;54092;53.088;8.850;2023-07-02T13:02:47;7.10;;;2.95;;
67162;SDS011;54092;53.088;8.850;2023-07-02T13:05:13;9.68;;;3.47;;
67162;SDS011;54092;53.088;8.850;2023-07-02T13:07:38;10.18;;;3.30;;
67162;SDS011;54092;53.088;8.850;2023-07-02T13:10:04;9.13;;;2.92;;
67162;SDS011;54092;53.088;8.850;2023-07-02T13:12:30;9.43;;;3.40;;
67162;SDS011;54092;53.088;8.850;2023-07-02T13:14:56;10.23;;;3.35;;
67162;SDS011;54092;53.088;8.850;2023-07-02T13:17:21;12.50;;;3.90;;
67162;SDS011;54092;53.088;8.850;2023-07-02T13:19:47;7.97;;;3.28;;
67162;SDS011;54092;53.088;8.850;2023-07-02T13:22:13;9.15;;;3.28;;
67162;SDS011;54092;53.088;8.850;2023-07-02T13:24:39;11.45;;;3.25;;
67162;SDS011;54092;53.088;8.850;2023-07-02T13:27:13;10.90;;;3.13;;
67162;SDS011;54092;53.088;8.850;2023-07-02T13:29:41;6.97;;;3.10;;
67162;SDS011;54092;53.088;8.850;2023-07-02T13:32:06;8.38;;;2.97;;
67162;SDS011;54092;53.088;8.850;2023-07-02T13:34:32;7.97;;;3.72;;
67162;SDS011;54092;53.088;8.850;2023-07-02T13:36:58;9.65;;;2.90;;
67162;SDS011;54092;53.088;8.850;2023-07-02T13:39:23;8.65;;;3.20;;
67162;SDS011;54092;53.088;8.850;2023-07-02T13:41:49;8.60;;;3.20;;
67162;SDS011;54092;53.088;8.850;2023-07-02T13:44:15;11.27;;;3.65;;
67162;SDS011;54092;53.088;8.850;2023-07-02T13:46:42;8.93;;;3.25;;
67162;SDS011;54092;53.088;8.850;2023-07-02T13:49:09;11.00;;;3.60;;
67162;SDS011;54092;53.088;8.850;2023-07-02T13:51:35;8.10;;;3.30;;
67162;SDS011;54092;53.088;8.850;2023-07-02T13:54:01;9.80;;;3.28;;
67162;SDS011;54092;53.088;8.850;2023-07-02T13:56:27;7.43;;;2.90;;
67162;SDS011;54092;53.088;8.850;2023-07-02T14:01:21;10.23;;;3.00;;
67162;SDS011;54092;53.088;8.850;2023-07-02T14:03:47;20.42;;;3.55;;
67162;SDS011;54092;53.088;8.850;2023-07-02T14:06:13;8.95;;;3.10;;
67162;SDS011;54092;53.088;8.850;2023-07-02T14:08:39;7.07;;;3.00;;
67162;SDS011;54092;53.088;8.850;2023-07-02T14:11:04;12.65;;;4.22;;
67162;SDS011;54092;53.088;8.850;2023-07-02T14:13:30;12.13;;;3.67;;
67162;SDS011;54092;53.088;8.850;2023-07-02T14:15:55;9.07;;;3.10;;
67162;SDS011;54092;53.088;8.850;2023-07-02T14:18:21;7.40;;;3.25;;
67162;SDS011;54092;53.088;8.850;2023-07-02T14:20:47;11.13;;;3.25;;
67162;SDS011;54092;53.088;8.850;2023-07-02T14:23:12;9.60;;;3.20;;
67162;SDS011;54092;53.088;8.850;2023-07-02T14:25:38;10.88;;;3.60;;
67162;SDS011;54092;53.088;8.850;2023-07-02T14:28:04;8.75;;;3.47;;
67162;SDS011;54092;53.088;8.850;2023-07-02T14:30:29;7.47;;;3.05;;
67162;SDS011;54092;53.088;8.850;2023-07-02T14:32:55;6.90;;;3.42;;
67162;SDS011;54092;53.088;8.850;2023-07-02T14:35:20;7.28;;;2.97;;
67162;SDS011;54092;53.088;8.850;2023-07-02T14:37:50;8.60;;;3.38;;
67162;SDS011;54092;53.088;8.850;2023-07-02T14:40:16;7.95;;;3.03;;
67162;SDS011;54092;53.088;8.850;2023-07-02T14:42:41;7.07;;;3.10;;
67162;SDS011;54092;53.088;8.850;2023-07-02T14:45:07;7.60;;;3.20;;
67162;SDS011;54092;53.088;8.850;2023-07-02T14:47:34;8.57;;;2.95;;